Alida, Canada
Current Conditions -  °F | °C
As of 8:00 AM on Sunday 23 Nov 2014 (Local Time) from CYEN Reporting Station
Light Snow Light Snow  
Wind Chill: -20°   Ceiling: 1200
Heat Index: -9°   Visibility: 4mi
Dew Point: -11°   Wind: 28mph
Humidity: 86%   Direction: 320°NW
Pressure: 29.49"   Gusts: 40mph
Location:  49.38°N, 101.87°W
Report Text: CYEN 231400Z 32024G35KT 4SM -SN DRSN OVC012 M09/M11 A2949 RMKSC8 PRESRR SLP007
Loading
Personal Weather Stations






























Interactive Weather Map New forecast layout! Learn more

10-Day Weather Forecast

Advertisements
Track Severe Weather on mobile